This is the latest recevied weather packets stored in our database for station/object KO5MO-10. If no packets are shown the sender has not sent any weather packets the latest 1 day(s).
| Time | Temp. | Humidity | Pressure | Rain* | Wind** | Luminosity | Snow |
|---|---|---|---|---|---|---|---|
| 1777817466 | 23.33° C | 34% | 1007.3 hPa | - | - | - | - |
| 1777816565 | 21.67° C | 37% | 1007.5 hPa | - | - | - | - |
| 1777815665 | 21.11° C | 39% | 1007.4 hPa | - | - | - | - |
| 1777814765 | 21.11° C | 37% | 1007.1 hPa | - | - | - | - |
| 1777813865 | 20.56° C | 37% | 1007.1 hPa | - | - | - | - |
| 1777812965 | 21.11° C | 36% | 1006.9 hPa | - | - | - | - |
| 1777812064 | 21.11° C | 35% | 1006.9 hPa | - | - | - | - |
| 1777811164 | 21.11° C | 34% | 1006.7 hPa | - | - | - | - |
| 1777810264 | 21.11° C | 36% | 1006.5 hPa | - | - | - | - |
| 1777809364 | 21.11° C | 33% | 1006.5 hPa | - | - | - | - |
| 1777808464 | 21.11° C | 36% | 1006.5 hPa | - | - | - | - |
| 1777807564 | 21.11° C | 33% | 1006.5 hPa | - | - | - | - |
| 1777806663 | 21.11° C | 32% | 1006.5 hPa | - | - | - | - |
| 1777805763 | 21.11° C | 30% | 1006.7 hPa | - | - | - | - |
| 1777804863 | 21.11° C | 30% | 1006.7 hPa | - | - | - | - |
| 1777803963 | 21.67° C | 30% | 1006.6 hPa | - | - | - | - |
| 1777803063 | 21.67° C | 29% | 1006.7 hPa | - | - | - | - |
| 1777802162 | 21.67° C | 28% | 1006.5 hPa | - | - | - | - |
| 1777801262 | 21.11° C | 29% | 1006.5 hPa | - | - | - | - |
| 1777800362 | 21.11° C | 29% | 1006.4 hPa | - | - | - | - |
| 1777799462 | 20.56° C | 29% | 1006.5 hPa | - | - | - | - |
* Rain since midnight (hover to see other rain measurements)
** Current wind speed in m/s (hover to see current wind gust speed)